עמוד ראשי
METAR-TAF:

METAR-TAF

שדות תעופה :

Carlsbad, ניו מקסיקו, ארצות הברית

קו רוחב: 32-20-15N, קו אורך: 104-15-48W, גובה: 1004מטר

תצפית מזג אוויר נוכחית

הדו"ח נערך לפני 1 שעות ו 10דקות, בשעה 01:53 UTC
רוח 9קשר מכיוון דרום-מזרח
טמפרטורת 32 צלסיוס
לחות 28%
לחץ 1021 hPa
ראות: 16.1קילומטר
שמיים נקיים

METAR: KCNM 250153Z AUTO 14009KT 10SM CLR 32/11 A3015 RMK AO2 SLP151 T03170106

זמן: 21:03 (03:03 UTC)

תחזית

הדו"ח נערך לפני 3 שעות ו 25דקות, בשעה 23:38 UTC
תחזית בתוקף מ 25 ב 00 UTC עד 25 ב 24 UTC
רוח 6קשר מכיוון דרום-מזרח
ראות: 10קילומטר
מעט עננים בגובה 8000רגל
מ 25 ב 0300UTC
רוח 5קשר מכיוון דרום/דרום-מערב
ראות: 10קילומטר
שמיים נקיים
מ 25 ב 1600UTC
רוח 7קשר מכיוון מזרח/דרום-מזרח
ראות: 10קילומטר
שמיים נקיים

TAF: KCNM 242338Z 2500/2524 13006KT P6SM FEW080 FM250300 20005KT P6SM SKC FM251600 12007KT P6SM SKC

תצפיות ותחזיות מזג אוויר לגבי יותר מ- 4,000 שדות תעופה ברחבי העולם. דוחות METAR ו- TAF.

התחנות הזמינות מסומנות בנקודות צהובות ואדומות על גבי המפה.

העבר את העכבר לנקודה הצבעונית על מנת לראות את שם התחנה.

לאחר מכן, לחץ כדי לראות את תוכן ואת תחזיות מזג האוויר.

כדי לשנות את המפה: לחץ על הכפתורים הירוקים עם הפלוס השחור כדי להתקרב; על הכפתור הירוק עם המקף כדי להתרחק; או בחיצים הירוקים למפות סמוכות.


METAR-TAF: